createdAt,value
2019-03-12T05:53:28.346Z,22.02
2019-03-12T05:55:58.533Z,30.75
2019-03-12T05:58:29.862Z,32.70
2019-03-12T06:01:02.031Z,24.25
2019-03-12T06:03:31.871Z,25.00
2019-03-12T06:06:01.654Z,25.88
2019-03-12T06:08:32.275Z,24.75
2019-03-12T06:11:02.132Z,23.57
2019-03-12T06:13:31.960Z,24.27
2019-03-12T06:16:01.877Z,37.20
2019-03-12T06:18:31.814Z,26.80
2019-03-12T06:21:02.449Z,23.57
2019-03-12T06:23:32.468Z,19.95
2019-03-12T06:26:02.314Z,23.30
2019-03-12T06:28:32.102Z,29.02
2019-03-12T06:31:09.261Z,30.70
2019-03-12T06:33:49.454Z,28.32
2019-03-12T06:36:23.939Z,21.33
2019-03-12T06:38:55.328Z,26.85
2019-03-12T06:41:30.040Z,23.22
2019-03-12T06:44:04.577Z,25.52
2019-03-12T06:46:42.294Z,21.97
2019-03-12T06:49:25.943Z,22.13
2019-03-12T06:52:12.641Z,17.40
2019-03-12T06:54:47.307Z,25.85
2019-03-12T06:57:19.182Z,22.87
2019-03-12T06:59:56.451Z,18.00
2019-03-12T07:02:27.939Z,14.00
2019-03-12T07:05:15.889Z,21.10
2019-03-12T07:07:47.351Z,20.77
2019-03-12T07:56:48.972Z,20.00
2019-03-12T09:13:07.025Z,15.88
2019-03-12T09:15:52.002Z,13.93
2019-03-12T09:18:41.742Z,12.27
2019-03-12T09:21:24.902Z,14.73
2019-03-12T09:24:10.047Z,15.58
2019-03-12T09:29:38.771Z,13.15
2019-03-12T09:44:31.433Z,15.40
2019-03-12T09:53:33.754Z,21.20
2019-03-12T09:56:53.075Z,16.12
2019-03-12T10:08:36.998Z,15.58
2019-03-12T10:29:54.438Z,19.55
2019-03-12T10:45:24.308Z,16.07
2019-03-12T10:49:08.210Z,11.68
2019-03-12T11:27:55.118Z,13.53
2019-03-12T11:36:53.365Z,20.65
2019-03-12T11:52:23.064Z,15.95
2019-03-12T11:55:07.777Z,13.43
2019-03-12T11:57:50.971Z,8.93
2019-03-12T12:00:34.517Z,10.93
2019-03-12T12:03:04.444Z,8.95
2019-03-12T12:05:34.390Z,16.48
2019-03-12T12:08:04.770Z,12.20
2019-03-12T12:10:34.653Z,13.90
2019-03-12T12:13:04.733Z,11.57
2019-03-12T12:15:36.700Z,10.90
2019-03-12T12:18:08.032Z,14.28
2019-03-12T12:20:37.851Z,13.13
2019-03-12T12:23:07.684Z,16.25
2019-03-12T12:25:38.568Z,11.83
2019-03-12T12:28:08.369Z,7.67
2019-03-12T12:30:39.146Z,8.38
2019-03-12T12:33:09.110Z,11.40
2019-03-12T12:35:39.059Z,9.33
2019-03-12T12:38:08.970Z,13.40
2019-03-12T12:40:38.749Z,11.63
2019-03-12T12:43:24.506Z,13.00
2019-03-12T12:45:54.318Z,13.13
2019-03-12T12:48:32.194Z,13.75
2019-03-12T12:51:11.096Z,10.50
2019-03-12T12:53:43.447Z,13.03
2019-03-12T12:56:17.996Z,16.10
2019-03-12T12:58:50.588Z,15.08
2019-03-12T13:01:27.566Z,10.00
2019-03-12T13:04:01.019Z,15.45
2019-03-12T13:06:43.273Z,15.78
2019-03-12T13:14:41.600Z,15.60
2019-03-12T13:17:10.378Z,11.03
2019-03-12T13:19:41.593Z,14.75
2019-03-12T13:22:12.361Z,16.40
2019-03-12T13:24:43.347Z,13.22
2019-03-12T13:27:13.289Z,11.20
2019-03-12T13:29:45.062Z,13.98
2019-03-12T13:32:16.659Z,15.75
2019-03-12T13:34:46.640Z,11.83
2019-03-12T13:37:16.653Z,14.95
2019-03-12T13:39:46.736Z,15.63
2019-03-12T13:42:18.401Z,13.30
2019-03-12T13:44:48.361Z,11.65
2019-03-12T13:47:28.548Z,14.23
2019-03-12T13:50:07.388Z,10.93
2019-03-12T13:52:46.253Z,12.33
2019-03-12T13:55:19.675Z,14.78
2019-03-12T13:57:49.310Z,12.63
2019-03-12T14:00:25.865Z,11.83
2019-03-12T14:02:56.622Z,11.57
2019-03-12T14:05:31.380Z,14.07
2019-03-12T14:08:03.041Z,12.18
2019-03-12T14:10:34.677Z,10.50
2019-03-12T14:13:05.737Z,8.60
2019-03-12T14:15:39.019Z,12.50
2019-03-12T14:18:11.886Z,16.20
2019-03-12T14:20:51.465Z,10.58
2019-03-12T14:23:44.765Z,10.35
2019-03-12T14:26:15.174Z,14.45
2019-03-12T14:28:45.851Z,20.65
2019-03-12T14:31:16.291Z,9.65
2019-03-12T14:33:47.052Z,10.98
2019-03-12T14:36:17.125Z,8.75
2019-03-12T14:38:47.096Z,10.95
2019-03-12T14:41:17.055Z,13.88
2019-03-12T14:43:48.248Z,8.88
2019-03-12T14:46:29.623Z,13.68
2019-03-12T14:48:59.880Z,11.22
2019-03-12T14:51:49.035Z,11.43
2019-03-12T14:54:18.897Z,10.78
2019-03-12T14:56:48.898Z,15.40
2019-03-12T14:59:22.062Z,11.97
2019-03-12T15:01:51.922Z,11.43
2019-03-12T15:04:21.853Z,9.98
2019-03-12T15:06:51.725Z,12.43
2019-03-12T15:09:21.649Z,9.10
2019-03-12T15:11:51.555Z,11.33
2019-03-12T15:14:21.638Z,14.83
2019-03-12T15:16:51.501Z,10.63
2019-03-12T15:19:21.423Z,13.13
2019-03-12T15:21:51.379Z,13.88
2019-03-12T15:25:05.991Z,13.58
2019-03-12T15:27:59.330Z,10.32
2019-03-12T15:30:40.778Z,16.73
2019-03-12T15:33:21.132Z,11.33
2019-03-12T15:36:27.880Z,12.58
2019-03-12T15:39:00.059Z,11.75
2019-03-12T15:41:30.914Z,14.07
2019-03-12T15:44:04.923Z,9.83
2019-03-12T15:46:35.411Z,16.75
2019-03-12T15:49:32.877Z,9.85
2019-03-12T15:55:03.593Z,13.00
2019-03-12T15:57:53.984Z,9.63
2019-03-12T16:03:30.288Z,13.03
2019-03-12T16:06:00.212Z,12.88
2019-03-12T16:08:30.906Z,13.62
2019-03-12T16:11:00.848Z,12.70
2019-03-12T16:13:29.488Z,12.05
2019-03-12T16:15:59.406Z,19.42
2019-03-12T16:18:30.440Z,9.70
2019-03-12T16:21:10.108Z,12.37
2019-03-12T16:26:49.093Z,17.90
2019-03-12T16:29:19.546Z,11.40
2019-03-12T16:31:51.226Z,11.80
2019-03-12T16:34:21.015Z,12.93
2019-03-12T16:36:51.029Z,16.60
2019-03-12T16:39:21.515Z,13.35
2019-03-12T16:41:51.311Z,12.55
2019-03-12T16:44:21.136Z,16.45
2019-03-12T16:46:51.029Z,13.40
2019-03-12T16:49:20.944Z,10.70
2019-03-12T16:51:50.890Z,13.32
2019-03-12T16:54:21.808Z,10.95
2019-03-12T16:56:53.316Z,10.72
2019-03-12T16:59:23.630Z,9.68
2019-03-12T17:01:54.220Z,10.25
2019-03-12T17:04:26.445Z,11.95
2019-03-12T17:07:03.257Z,13.30
2019-03-12T17:09:35.190Z,12.78
2019-03-12T17:12:08.388Z,9.95
2019-03-12T17:14:40.116Z,12.13
2019-03-12T17:17:31.335Z,13.62
2019-03-12T17:20:01.996Z,9.75
2019-03-12T17:25:38.040Z,11.50
2019-03-12T17:28:23.411Z,11.63
2019-03-12T17:30:54.906Z,14.83
2019-03-12T17:53:39.633Z,11.00
2019-03-12T17:56:27.496Z,12.75
2019-03-12T17:58:59.846Z,11.38
2019-03-12T18:01:34.885Z,11.40
2019-03-12T18:04:24.917Z,17.37
2019-03-12T18:07:26.218Z,10.68
2019-03-12T18:09:57.714Z,9.63
2019-03-12T18:12:32.007Z,11.88
2019-03-12T18:15:03.873Z,10.82
2019-03-12T18:17:33.849Z,11.45
2019-03-12T18:20:05.243Z,11.60
2019-03-12T18:22:41.308Z,12.47
2019-03-12T18:25:20.891Z,14.60
2019-03-12T18:27:51.950Z,10.40
2019-03-12T18:30:24.024Z,13.10
2019-03-12T18:32:59.522Z,14.25
2019-03-12T18:35:30.243Z,10.82
2019-03-12T18:38:01.107Z,11.48
2019-03-12T18:40:31.429Z,11.90
2019-03-12T18:43:01.328Z,18.52
2019-03-12T18:45:45.389Z,19.48
2019-03-12T18:48:15.241Z,14.05
2019-03-12T18:53:34.775Z,16.17
2019-03-12T18:56:08.009Z,11.95
2019-03-12T18:58:39.862Z,13.95
2019-03-12T19:01:09.692Z,13.95
2019-03-12T19:03:40.355Z,15.15
2019-03-12T19:06:11.841Z,8.28
2019-03-12T19:08:47.524Z,14.87
2019-03-12T19:11:14.328Z,12.40
2019-03-12T19:13:44.387Z,12.93
2019-03-12T19:16:14.120Z,5.20
2019-03-12T19:18:43.913Z,4.75
2019-03-12T19:21:13.804Z,4.55
2019-03-12T19:23:43.602Z,5.47
2019-03-12T19:26:13.749Z,5.00
2019-03-12T19:28:43.628Z,6.03
2019-03-12T19:31:15.553Z,2.83
2019-03-12T19:33:45.956Z,5.42
2019-03-12T19:36:18.406Z,5.90
2019-03-12T19:38:48.322Z,3.70
2019-03-12T19:41:23.919Z,5.17
2019-03-12T19:43:56.656Z,4.70
2019-03-12T19:46:27.182Z,4.72
2019-03-12T19:49:01.221Z,2.80
2019-03-12T19:51:31.183Z,4.95
2019-03-12T19:54:02.278Z,5.55
2019-03-12T19:56:32.850Z,4.33
2019-03-12T19:59:06.426Z,7.83
2019-03-12T20:01:42.516Z,4.53
2019-03-12T20:04:17.436Z,5.95
2019-03-12T20:06:48.827Z,6.53
2019-03-12T20:09:24.422Z,4.80
2019-03-12T20:11:59.255Z,6.92
2019-03-12T20:15:16.686Z,8.23
2019-03-12T20:17:57.342Z,5.20
2019-03-12T20:20:51.164Z,5.17
2019-03-12T20:23:50.314Z,9.50
2019-03-12T20:26:46.282Z,5.40
2019-03-12T20:30:03.015Z,3.65
2019-03-12T20:33:16.627Z,6.10
2019-03-12T20:36:23.979Z,6.25
2019-03-12T20:39:48.101Z,7.22
2019-03-12T20:42:56.065Z,8.73
2019-03-12T20:46:20.385Z,9.78
2019-03-12T20:49:34.412Z,7.20
2019-03-12T20:52:46.651Z,5.10
2019-03-12T20:55:34.111Z,10.53
2019-03-12T21:01:44.060Z,9.00
2019-03-12T21:04:35.428Z,6.03
2019-03-12T21:07:37.516Z,8.40
2019-03-12T21:10:57.298Z,9.43
2019-03-12T21:14:11.071Z,6.90
2019-03-12T21:17:11.026Z,12.30
2019-03-12T21:20:21.906Z,11.28
2019-03-12T21:23:11.468Z,10.48
2019-03-12T21:26:20.693Z,9.70
2019-03-12T21:29:09.940Z,11.08
2019-03-12T21:31:44.540Z,11.60
2019-03-12T21:34:14.445Z,10.95
2019-03-12T21:36:44.356Z,12.05
2019-03-12T21:39:18.418Z,12.25
2019-03-12T21:41:49.876Z,8.10
2019-03-12T21:44:19.851Z,7.75
2019-03-12T21:46:49.735Z,8.85
2019-03-12T21:49:19.548Z,6.72
2019-03-12T21:51:49.395Z,9.08
2019-03-12T21:54:19.280Z,11.55
2019-03-12T21:56:49.074Z,8.25
2019-03-12T21:59:18.855Z,7.47
2019-03-12T22:01:48.680Z,12.13
2019-03-12T22:04:18.468Z,11.28
2019-03-12T22:06:48.263Z,14.43
2019-03-12T22:09:18.156Z,11.12
2019-03-12T22:11:48.027Z,11.97
2019-03-12T22:14:19.412Z,11.60
2019-03-12T22:16:50.907Z,11.12
2019-03-12T22:19:20.706Z,16.37
2019-03-12T22:21:55.057Z,8.80
2019-03-12T22:24:25.408Z,11.03
2019-03-12T22:26:55.506Z,10.10
2019-03-12T22:29:25.457Z,12.00
2019-03-12T22:31:55.274Z,9.10
2019-03-12T22:34:25.239Z,10.98
2019-03-12T22:36:55.041Z,9.48
2019-03-12T22:39:26.014Z,13.00
2019-03-12T22:41:55.923Z,8.53
2019-03-12T22:44:25.828Z,7.47
2019-03-12T22:46:55.712Z,10.13
2019-03-12T22:49:25.670Z,12.35
2019-03-12T22:51:56.551Z,10.65
2019-03-12T22:54:26.450Z,9.13
2019-03-12T22:56:56.317Z,10.38
2019-03-12T22:59:27.634Z,11.48
2019-03-12T23:01:57.459Z,7.62
2019-03-12T23:04:27.306Z,10.45
2019-03-12T23:07:03.043Z,14.90
2019-03-12T23:09:36.543Z,12.70
2019-03-12T23:12:12.846Z,10.98
2019-03-12T23:14:49.408Z,10.00
2019-03-12T23:17:18.367Z,11.65
2019-03-12T23:19:50.506Z,18.73
2019-03-12T23:22:20.965Z,11.68
2019-03-12T23:24:53.729Z,14.35
2019-03-12T23:27:25.229Z,12.50
2019-03-12T23:29:55.110Z,11.60
2019-03-12T23:32:25.025Z,13.05
2019-03-12T23:35:01.018Z,15.23
2019-03-12T23:37:31.517Z,12.82
2019-03-12T23:40:02.349Z,15.32
2019-03-12T23:42:32.475Z,12.53
2019-03-12T23:45:02.409Z,14.75
2019-03-12T23:47:32.576Z,15.10
2019-03-12T23:50:02.590Z,17.80
2019-03-12T23:52:32.420Z,18.02
2019-03-12T23:55:05.539Z,13.22
2019-03-12T23:57:35.874Z,15.10
